M/s Stromma Kanal — SJLM — position and weather

sailwx.info

Track history (hours):
 
Tides and Currents Weather Stations Pressure Air Temp Water Temp Dewpoint Dewpoint Depression Visibility Wind Speed Wind Dir Waves Ship Positions

M/s Stromma Kanal

Last reported at 2016-Aug-29 22:31 UTC. Time now 2016-Aug-29 23:27 UTC.
Position N 59°20' E 018°05'.

Length 26 m.

Type: Passenger vessel. MMSI: 265609570.

Date/timePositionNaut miles runAvg speedWind from/ knotsBaromVisibWave heightAir tempDewpointWater temp
2016-Aug-29 22:31N 59°20' E 018°05'0 0.0
2016-Aug-29 21:31N 59°20' E 018°05'0 0.0
2016-Aug-29 20:31N 59°20' E 018°05'0 0.0
2016-Aug-29 19:31N 59°20' E 018°05'0 0.0
2016-Aug-29 18:31N 59°20' E 018°05'0 0.0
2016-Aug-29 17:31N 59°20' E 018°05'0 0.0
2016-Aug-29 16:31N 59°20' E 018°05'0 0.0
2016-Aug-29 15:31N 59°20' E 018°05'0 0.0
2016-Aug-29 13:28N 59°20' E 018°05'0 0.0
2016-Aug-29 12:28N 59°20' E 018°05'0 0.0
2016-Aug-29 04:27N 59°20' E 018°05'0 0.0
2016-Aug-29 03:33N 59°20' E 018°05'0 0.0
2016-Aug-29 02:33N 59°20' E 018°05'0 0.0
2016-Aug-29 01:33N 59°20' E 018°05'0 0.0
2016-Aug-29 00:33N 59°20' E 018°05'0 0.0
2016-Aug-28 23:33N 59°20' E 018°05'0 0.0
2016-Aug-28 22:33N 59°20' E 018°05'0 0.0
2016-Aug-28 21:33N 59°20' E 018°05'0 0.0
2016-Aug-28 20:33N 59°20' E 018°05'0 0.0
2016-Aug-28 19:33N 59°20' E 018°05'0 0.0
2016-Aug-28 18:33N 59°20' E 018°05'0 0.0
2016-Aug-28 17:33N 59°20' E 018°05'0 0.0
2016-Aug-28 16:33N 59°20' E 018°05'0 0.0
2016-Aug-28 15:33N 59°20' E 018°05'0 0.0
2016-Aug-28 14:33N 59°20' E 018°05'3 2.7
2016-Aug-28 13:33N 59°19' E 018°10'2 0.6
2016-Aug-28 09:30N 59°21' E 018°13'5 4.8
2016-Aug-28 08:33N 59°20' E 018°05'0 0.0
2016-Aug-28 07:33N 59°20' E 018°05'0 0.0
2016-Aug-28 06:33N 59°20' E 018°05'0 0.0
2016-Aug-28 05:33N 59°20' E 018°05'0 0.0
2016-Aug-28 04:33N 59°20' E 018°05'0 0.0
2016-Aug-28 03:33N 59°20' E 018°05'0 0.0
2016-Aug-28 02:33N 59°20' E 018°05'0 0.0
2016-Aug-28 01:33N 59°20' E 018°05'0 0.0
2016-Aug-28 00:33N 59°20' E 018°05'0 0.0
2016-Aug-27 23:33N 59°20' E 018°05'0 0.0
2016-Aug-27 22:33N 59°20' E 018°05'0 0.0
2016-Aug-27 21:33N 59°20' E 018°05'0 0.0
2016-Aug-27 20:34N 59°20' E 018°05'5 1.9
2016-Aug-27 18:06N 59°21' E 018°14'5 8.4
2016-Aug-27 17:33N 59°20' E 018°05'0 0.3
2016-Aug-27 16:32N 59°20' E 018°05'0 0.0
2016-Aug-27 15:32N 59°20' E 018°05'0 0.0
2016-Aug-27 14:32N 59°20' E 018°05'3 3.2
2016-Aug-27 13:32N 59°20' E 018°11'1 0.3
2016-Aug-27 10:28N 59°20' E 018°13'4 4.5
2016-Aug-27 09:33N 59°20' E 018°05'0 0.0
2016-Aug-27 08:33N 59°20' E 018°05'0 0.0
2016-Aug-27 07:33N 59°20' E 018°05'0 0.0
2016-Aug-27 06:33N 59°20' E 018°05'0 0.0
2016-Aug-27 04:33N 59°20' E 018°05'0 0.0
2016-Aug-27 03:33N 59°20' E 018°05'0 0.0
2016-Aug-27 02:33N 59°20' E 018°05'0 0.0
2016-Aug-27 01:33N 59°20' E 018°05'0 0.0
2016-Aug-27 00:33N 59°20' E 018°05'0 0.0
2016-Aug-26 23:33N 59°20' E 018°05'0 0.0
2016-Aug-26 22:33N 59°20' E 018°05'0 0.0
2016-Aug-26 21:33N 59°20' E 018°05'0 0.0
2016-Aug-26 20:33N 59°20' E 018°05'5 2.1
2016-Aug-26 18:14N 59°21' E 018°14'5 6.8
2016-Aug-26 17:31N 59°20' E 018°05'0 0.0
2016-Aug-26 16:31N 59°20' E 018°05'0 0.0
2016-Aug-26 15:31N 59°20' E 018°05'0 0.0
2016-Aug-26 14:31N 59°20' E 018°05'0 0.0
2016-Aug-26 13:31N 59°20' E 018°05'0 0.0
2016-Aug-26 12:31N 59°20' E 018°05'0 0.0
2016-Aug-26 11:31N 59°20' E 018°05'0 0.0
2016-Aug-26 10:31N 59°20' E 018°05'0 0.0
2016-Aug-26 09:31N 59°20' E 018°05'0 0.0
2016-Aug-26 08:31N 59°20' E 018°05'0 0.0
2016-Aug-26 07:31N 59°20' E 018°05'0 0.0
2016-Aug-26 06:31N 59°20' E 018°05'0 0.0
2016-Aug-26 04:31N 59°20' E 018°05'0 0.0
2016-Aug-26 03:31N 59°20' E 018°05'0 0.0
2016-Aug-26 02:31N 59°20' E 018°05'0 0.0
2016-Aug-26 01:31N 59°20' E 018°05'0 0.0
2016-Aug-26 00:31N 59°20' E 018°05'0 0.0
2016-Aug-25 23:31N 59°20' E 018°05'0 0.0
2016-Aug-25 22:31N 59°20' E 018°05'0 0.0
2016-Aug-25 21:31N 59°20' E 018°05'0 0.1
2016-Aug-25 20:34N 59°20' E 018°05'4 1.8
2016-Aug-25 18:10N 59°20' E 018°13'4 0.3
2016-Aug-25 04:31N 59°20' E 018°05'0 0.0
2016-Aug-25 03:31N 59°20' E 018°05'0 0.0
2016-Aug-25 02:31N 59°20' E 018°05'0 0.0
2016-Aug-25 01:31N 59°20' E 018°05'0 0.0
2016-Aug-25 00:31N 59°20' E 018°05'0 0.0
2016-Aug-24 23:31N 59°20' E 018°05'0 0.0
2016-Aug-24 22:31N 59°20' E 018°05'0 0.0
2016-Aug-24 21:31N 59°20' E 018°05'0 0.2
2016-Aug-24 20:33N 59°20' E 018°05'5 2.1
2016-Aug-24 18:16N 59°21' E 018°14'5 6.8
2016-Aug-24 17:33N 59°20' E 018°05'0 0.1
2016-Aug-24 16:31N 59°20' E 018°05'0 0.0
2016-Aug-24 15:31N 59°20' E 018°05'0 0.0
2016-Aug-24 14:31N 59°20' E 018°05'0 0.0
2016-Aug-24 13:28N 59°20' E 018°05'0 0.0
2016-Aug-24 12:31N 59°20' E 018°05'0 0.0
2016-Aug-24 11:31N 59°20' E 018°05'0 0.0
2016-Aug-24 10:31N 59°20' E 018°05'0 0.1
2016-Aug-24 06:34N 59°20' E 018°05'0 0.1
2016-Aug-24 04:31N 59°20' E 018°05'0 0.0
2016-Aug-24 03:31N 59°20' E 018°05'0 0.0
2016-Aug-24 02:31N 59°20' E 018°05'0 0.0
2016-Aug-24 01:31N 59°20' E 018°05'0 0.0
2016-Aug-24 00:31N 59°20' E 018°05'0 0.0
2016-Aug-23 23:31N 59°20' E 018°05'0 0.0
2016-Aug-23 22:31N 59°20' E 018°05'0 0.0
2016-Aug-23 21:31N 59°20' E 018°05'0 0.0
2016-Aug-23 20:31N 59°20' E 018°05'0 0.0
2016-Aug-23 19:31N 59°20' E 018°05'0 0.0
2016-Aug-23 18:31N 59°20' E 018°05'0 0.0
2016-Aug-23 17:31N 59°20' E 018°05'0 0.0
2016-Aug-23 16:32N 59°20' E 018°05'0 0.0
2016-Aug-23 15:32N 59°20' E 018°05'0 0.0
2016-Aug-23 14:26N 59°20' E 018°05'0 0.0
2016-Aug-23 13:32N 59°20' E 018°05'0 0.0
2016-Aug-23 12:32N 59°20' E 018°05'0 0.0
2016-Aug-23 11:32N 59°20' E 018°05'0 0.0
2016-Aug-23 10:32N 59°20' E 018°05'0 0.0
2016-Aug-23 09:32N 59°20' E 018°05'0 0.0
2016-Aug-23 08:32N 59°20' E 018°05'0 0.0
2016-Aug-23 07:32N 59°20' E 018°05'0 0.0
2016-Aug-23 06:32N 59°20' E 018°05'0 0.0
2016-Aug-23 05:31N 59°20' E 018°05'0 0.0
2016-Aug-23 04:31N 59°20' E 018°05'0 0.0
2016-Aug-23 03:31N 59°20' E 018°05'0 0.0
2016-Aug-23 02:31N 59°20' E 018°05'0 0.0
2016-Aug-23 01:31N 59°20' E 018°05'0 0.0
2016-Aug-23 00:31N 59°20' E 018°05'0 0.0
2016-Aug-22 23:31N 59°20' E 018°05'0 0.0
2016-Aug-22 22:31N 59°20' E 018°05'0 0.0
2016-Aug-22 21:31N 59°20' E 018°05'0 0.0
2016-Aug-22 20:31N 59°20' E 018°05'0 0.0
2016-Aug-22 19:31N 59°20' E 018°05'0 0.0
2016-Aug-22 18:31N 59°20' E 018°05'0 0.0
2016-Aug-22 17:28N 59°20' E 018°05'0 0.0
2016-Aug-22 16:31N 59°20' E 018°05'0 0.0
2016-Aug-22 15:31N 59°20' E 018°05'0 0.0
2016-Aug-22 14:25N 59°20' E 018°05'0 0.0
2016-Aug-22 13:31N 59°20' E 018°05'0 0.0
2016-Aug-22 12:31N 59°20' E 018°05'0 0.0
2016-Aug-22 11:31N 59°20' E 018°05'0 0.0
2016-Aug-22 10:31N 59°20' E 018°05'0 0.0
2016-Aug-22 09:31N 59°20' E 018°05'0 0.0
2016-Aug-22 08:28N 59°20' E 018°05'0 0.0
2016-Aug-22 07:31N 59°20' E 018°05'0 0.0
2016-Aug-22 06:31N 59°20' E 018°05'0 0.0
2016-Aug-22 05:31N 59°20' E 018°05'0 0.0
2016-Aug-22 04:31N 59°20' E 018°05'0 0.0
2016-Aug-22 03:31N 59°20' E 018°05'0 0.0
2016-Aug-22 02:31N 59°20' E 018°05'0 0.0
2016-Aug-22 01:31N 59°20' E 018°05'0 0.0
2016-Aug-22 00:31N 59°20' E 018°05'0 0.0
2016-Aug-21 23:31N 59°20' E 018°05'0 0.0
2016-Aug-21 22:31N 59°20' E 018°05'0 0.0
2016-Aug-21 21:31N 59°20' E 018°05'0 0.0
2016-Aug-21 20:31N 59°20' E 018°05'0 0.0
2016-Aug-21 19:31N 59°20' E 018°05'0 0.0
2016-Aug-21 18:31N 59°20' E 018°05'0 0.0
2016-Aug-21 17:31N 59°20' E 018°05'0 0.0
2016-Aug-21 16:31N 59°20' E 018°05'1 0.7
2016-Aug-21 15:33N 59°19' E 018°06'4 0.5
2016-Aug-21 08:12N 59°20' E 018°13'4 6.6
2016-Aug-21 07:33N 59°20' E 018°05'0 0.0
2016-Aug-21 06:33N 59°20' E 018°05'0 0.0
2016-Aug-21 05:33N 59°20' E 018°05'0 0.0
2016-Aug-21 04:33N 59°20' E 018°05'0 0.0
2016-Aug-21 03:33N 59°20' E 018°05'0 0.0
2016-Aug-21 02:33N 59°20' E 018°05'0 0.0
2016-Aug-21 01:33N 59°20' E 018°05'0 0.0
2016-Aug-21 00:33N 59°20' E 018°05'0 0.0
2016-Aug-20 23:33N 59°20' E 018°05'0 0.0
2016-Aug-20 22:33N 59°20' E 018°05'0 0.0
2016-Aug-20 21:33N 59°20' E 018°05'0 0.0
2016-Aug-20 20:31N 59°20' E 018°05'5 2.1
2016-Aug-20 18:13N 59°21' E 018°14'5 7.2
2016-Aug-20 17:33N 59°20' E 018°05'0 0.0
2016-Aug-20 16:31N 59°20' E 018°05'2 1.8
2016-Aug-20 15:33N 59°19' E 018°08'3 0.4
2016-Aug-20 08:13N 59°20' E 018°13'4 6.2
2016-Aug-20 07:32N 59°20' E 018°05'0 0.0
2016-Aug-20 06:32N 59°20' E 018°05'0 0.0
2016-Aug-20 05:32N 59°20' E 018°05'0 0.0
2016-Aug-20 04:32N 59°20' E 018°05'0 0.0
2016-Aug-20 03:32N 59°20' E 018°05'0 0.0
2016-Aug-20 02:32N 59°20' E 018°05'0 0.0
2016-Aug-20 01:32N 59°20' E 018°05'0 0.0
2016-Aug-20 00:32N 59°20' E 018°05'0 0.0
2016-Aug-19 23:32N 59°20' E 018°05'0 0.0
2016-Aug-19 22:32N 59°20' E 018°05'  
Track history (hours):
 
Tides and Currents Weather Stations Pressure Air Temp Water Temp Dewpoint Dewpoint Depression Visibility Wind Speed Wind Dir Waves Ship Positions

M/s Stromma Kanal

Last reported at 2016-Aug-29 22:31 UTC. Time now 2016-Aug-29 23:27 UTC.
Position N 59°20' E 018°05'.

Length 26 m.

Type: Passenger vessel. MMSI: 265609570.

Date/timePositionNaut miles runAvg speedWind from/ knotsBaromVisibWave heightAir tempDewpointWater temp
2016-Aug-29 22:31N 59°20' E 018°05'0 0.0
2016-Aug-29 21:31N 59°20' E 018°05'0 0.0
2016-Aug-29 20:31N 59°20' E 018°05'0 0.0
2016-Aug-29 19:31N 59°20' E 018°05'0 0.0
2016-Aug-29 18:31N 59°20' E 018°05'0 0.0
2016-Aug-29 17:31N 59°20' E 018°05'0 0.0
2016-Aug-29 16:31N 59°20' E 018°05'0 0.0
2016-Aug-29 15:31N 59°20' E 018°05'0 0.0
2016-Aug-29 13:28N 59°20' E 018°05'0 0.0
2016-Aug-29 12:28N 59°20' E 018°05'0 0.0
2016-Aug-29 04:27N 59°20' E 018°05'0 0.0
2016-Aug-29 03:33N 59°20' E 018°05'0 0.0
2016-Aug-29 02:33N 59°20' E 018°05'0 0.0
2016-Aug-29 01:33N 59°20' E 018°05'0 0.0
2016-Aug-29 00:33N 59°20' E 018°05'0 0.0
2016-Aug-28 23:33N 59°20' E 018°05'0 0.0
2016-Aug-28 22:33N 59°20' E 018°05'0 0.0
2016-Aug-28 21:33N 59°20' E 018°05'0 0.0
2016-Aug-28 20:33N 59°20' E 018°05'0 0.0
2016-Aug-28 19:33N 59°20' E 018°05'0 0.0
2016-Aug-28 18:33N 59°20' E 018°05'0 0.0
2016-Aug-28 17:33N 59°20' E 018°05'0 0.0
2016-Aug-28 16:33N 59°20' E 018°05'0 0.0
2016-Aug-28 15:33N 59°20' E 018°05'0 0.0
2016-Aug-28 14:33N 59°20' E 018°05'3 2.7
2016-Aug-28 13:33N 59°19' E 018°10'2 0.6
2016-Aug-28 09:30N 59°21' E 018°13'5 4.8
2016-Aug-28 08:33N 59°20' E 018°05'0 0.0
2016-Aug-28 07:33N 59°20' E 018°05'0 0.0
2016-Aug-28 06:33N 59°20' E 018°05'0 0.0
2016-Aug-28 05:33N 59°20' E 018°05'0 0.0
2016-Aug-28 04:33N 59°20' E 018°05'0 0.0
2016-Aug-28 03:33N 59°20' E 018°05'0 0.0
2016-Aug-28 02:33N 59°20' E 018°05'0 0.0
2016-Aug-28 01:33N 59°20' E 018°05'0 0.0
2016-Aug-28 00:33N 59°20' E 018°05'0 0.0
2016-Aug-27 23:33N 59°20' E 018°05'0 0.0
2016-Aug-27 22:33N 59°20' E 018°05'0 0.0
2016-Aug-27 21:33N 59°20' E 018°05'0 0.0
2016-Aug-27 20:34N 59°20' E 018°05'5 1.9
2016-Aug-27 18:06N 59°21' E 018°14'5 8.4
2016-Aug-27 17:33N 59°20' E 018°05'0 0.3
2016-Aug-27 16:32N 59°20' E 018°05'0 0.0
2016-Aug-27 15:32N 59°20' E 018°05'0 0.0
2016-Aug-27 14:32N 59°20' E 018°05'3 3.2
2016-Aug-27 13:32N 59°20' E 018°11'1 0.3
2016-Aug-27 10:28N 59°20' E 018°13'4 4.5
2016-Aug-27 09:33N 59°20' E 018°05'0 0.0
2016-Aug-27 08:33N 59°20' E 018°05'0 0.0
2016-Aug-27 07:33N 59°20' E 018°05'0 0.0
2016-Aug-27 06:33N 59°20' E 018°05'0 0.0
2016-Aug-27 04:33N 59°20' E 018°05'0 0.0
2016-Aug-27 03:33N 59°20' E 018°05'0 0.0
2016-Aug-27 02:33N 59°20' E 018°05'0 0.0
2016-Aug-27 01:33N 59°20' E 018°05'0 0.0
2016-Aug-27 00:33N 59°20' E 018°05'0 0.0
2016-Aug-26 23:33N 59°20' E 018°05'0 0.0
2016-Aug-26 22:33N 59°20' E 018°05'0 0.0
2016-Aug-26 21:33N 59°20' E 018°05'0 0.0
2016-Aug-26 20:33N 59°20' E 018°05'5 2.1
2016-Aug-26 18:14N 59°21' E 018°14'5 6.8
2016-Aug-26 17:31N 59°20' E 018°05'0 0.0
2016-Aug-26 16:31N 59°20' E 018°05'0 0.0
2016-Aug-26 15:31N 59°20' E 018°05'0 0.0
2016-Aug-26 14:31N 59°20' E 018°05'0 0.0
2016-Aug-26 13:31N 59°20' E 018°05'0 0.0
2016-Aug-26 12:31N 59°20' E 018°05'0 0.0
2016-Aug-26 11:31N 59°20' E 018°05'0 0.0
2016-Aug-26 10:31N 59°20' E 018°05'0 0.0
2016-Aug-26 09:31N 59°20' E 018°05'0 0.0
2016-Aug-26 08:31N 59°20' E 018°05'0 0.0
2016-Aug-26 07:31N 59°20' E 018°05'0 0.0
2016-Aug-26 06:31N 59°20' E 018°05'0 0.0
2016-Aug-26 04:31N 59°20' E 018°05'0 0.0
2016-Aug-26 03:31N 59°20' E 018°05'0 0.0
2016-Aug-26 02:31N 59°20' E 018°05'0 0.0
2016-Aug-26 01:31N 59°20' E 018°05'0 0.0
2016-Aug-26 00:31N 59°20' E 018°05'0 0.0
2016-Aug-25 23:31N 59°20' E 018°05'0 0.0
2016-Aug-25 22:31N 59°20' E 018°05'0 0.0
2016-Aug-25 21:31N 59°20' E 018°05'0 0.1
2016-Aug-25 20:34N 59°20' E 018°05'4 1.8
2016-Aug-25 18:10N 59°20' E 018°13'4 0.3
2016-Aug-25 04:31N 59°20' E 018°05'0 0.0
2016-Aug-25 03:31N 59°20' E 018°05'0 0.0
2016-Aug-25 02:31N 59°20' E 018°05'0 0.0
2016-Aug-25 01:31N 59°20' E 018°05'0 0.0
2016-Aug-25 00:31N 59°20' E 018°05'0 0.0
2016-Aug-24 23:31N 59°20' E 018°05'0 0.0
2016-Aug-24 22:31N 59°20' E 018°05'0 0.0
2016-Aug-24 21:31N 59°20' E 018°05'0 0.2
2016-Aug-24 20:33N 59°20' E 018°05'5 2.1
2016-Aug-24 18:16N 59°21' E 018°14'5 6.8
2016-Aug-24 17:33N 59°20' E 018°05'0 0.1
2016-Aug-24 16:31N 59°20' E 018°05'0 0.0
2016-Aug-24 15:31N 59°20' E 018°05'0 0.0
2016-Aug-24 14:31N 59°20' E 018°05'0 0.0
2016-Aug-24 13:28N 59°20' E 018°05'0 0.0
2016-Aug-24 12:31N 59°20' E 018°05'0 0.0
2016-Aug-24 11:31N 59°20' E 018°05'0 0.0
2016-Aug-24 10:31N 59°20' E 018°05'0 0.1
2016-Aug-24 06:34N 59°20' E 018°05'0 0.1
2016-Aug-24 04:31N 59°20' E 018°05'0 0.0
2016-Aug-24 03:31N 59°20' E 018°05'0 0.0
2016-Aug-24 02:31N 59°20' E 018°05'0 0.0
2016-Aug-24 01:31N 59°20' E 018°05'0 0.0
2016-Aug-24 00:31N 59°20' E 018°05'0 0.0
2016-Aug-23 23:31N 59°20' E 018°05'0 0.0
2016-Aug-23 22:31N 59°20' E 018°05'0 0.0
2016-Aug-23 21:31N 59°20' E 018°05'0 0.0
2016-Aug-23 20:31N 59°20' E 018°05'0 0.0
2016-Aug-23 19:31N 59°20' E 018°05'0 0.0
2016-Aug-23 18:31N 59°20' E 018°05'0 0.0
2016-Aug-23 17:31N 59°20' E 018°05'0 0.0
2016-Aug-23 16:32N 59°20' E 018°05'0 0.0
2016-Aug-23 15:32N 59°20' E 018°05'0 0.0
2016-Aug-23 14:26N 59°20' E 018°05'0 0.0
2016-Aug-23 13:32N 59°20' E 018°05'0 0.0
2016-Aug-23 12:32N 59°20' E 018°05'0 0.0
2016-Aug-23 11:32N 59°20' E 018°05'0 0.0
2016-Aug-23 10:32N 59°20' E 018°05'0 0.0
2016-Aug-23 09:32N 59°20' E 018°05'0 0.0
2016-Aug-23 08:32N 59°20' E 018°05'0 0.0
2016-Aug-23 07:32N 59°20' E 018°05'0 0.0
2016-Aug-23 06:32N 59°20' E 018°05'0 0.0
2016-Aug-23 05:31N 59°20' E 018°05'0 0.0
2016-Aug-23 04:31N 59°20' E 018°05'0 0.0
2016-Aug-23 03:31N 59°20' E 018°05'0 0.0
2016-Aug-23 02:31N 59°20' E 018°05'0 0.0
2016-Aug-23 01:31N 59°20' E 018°05'0 0.0
2016-Aug-23 00:31N 59°20' E 018°05'0 0.0
2016-Aug-22 23:31N 59°20' E 018°05'0 0.0
2016-Aug-22 22:31N 59°20' E 018°05'0 0.0
2016-Aug-22 21:31N 59°20' E 018°05'0 0.0
2016-Aug-22 20:31N 59°20' E 018°05'0 0.0
2016-Aug-22 19:31N 59°20' E 018°05'0 0.0
2016-Aug-22 18:31N 59°20' E 018°05'0 0.0
2016-Aug-22 17:28N 59°20' E 018°05'0 0.0
2016-Aug-22 16:31N 59°20' E 018°05'0 0.0
2016-Aug-22 15:31N 59°20' E 018°05'0 0.0
2016-Aug-22 14:25N 59°20' E 018°05'0 0.0
2016-Aug-22 13:31N 59°20' E 018°05'0 0.0
2016-Aug-22 12:31N 59°20' E 018°05'0 0.0
2016-Aug-22 11:31N 59°20' E 018°05'0 0.0
2016-Aug-22 10:31N 59°20' E 018°05'0 0.0
2016-Aug-22 09:31N 59°20' E 018°05'0 0.0
2016-Aug-22 08:28N 59°20' E 018°05'0 0.0
2016-Aug-22 07:31N 59°20' E 018°05'0 0.0
2016-Aug-22 06:31N 59°20' E 018°05'0 0.0
2016-Aug-22 05:31N 59°20' E 018°05'0 0.0
2016-Aug-22 04:31N 59°20' E 018°05'0 0.0
2016-Aug-22 03:31N 59°20' E 018°05'0 0.0
2016-Aug-22 02:31N 59°20' E 018°05'0 0.0
2016-Aug-22 01:31N 59°20' E 018°05'0 0.0
2016-Aug-22 00:31N 59°20' E 018°05'0 0.0
2016-Aug-21 23:31N 59°20' E 018°05'0 0.0
2016-Aug-21 22:31N 59°20' E 018°05'0 0.0
2016-Aug-21 21:31N 59°20' E 018°05'0 0.0
2016-Aug-21 20:31N 59°20' E 018°05'0 0.0
2016-Aug-21 19:31N 59°20' E 018°05'0 0.0
2016-Aug-21 18:31N 59°20' E 018°05'0 0.0
2016-Aug-21 17:31N 59°20' E 018°05'0 0.0
2016-Aug-21 16:31N 59°20' E 018°05'1 0.7
2016-Aug-21 15:33N 59°19' E 018°06'4 0.5
2016-Aug-21 08:12N 59°20' E 018°13'4 6.6
2016-Aug-21 07:33N 59°20' E 018°05'0 0.0
2016-Aug-21 06:33N 59°20' E 018°05'0 0.0
2016-Aug-21 05:33N 59°20' E 018°05'0 0.0
2016-Aug-21 04:33N 59°20' E 018°05'0 0.0
2016-Aug-21 03:33N 59°20' E 018°05'0 0.0
2016-Aug-21 02:33N 59°20' E 018°05'0 0.0
2016-Aug-21 01:33N 59°20' E 018°05'0 0.0
2016-Aug-21 00:33N 59°20' E 018°05'0 0.0
2016-Aug-20 23:33N 59°20' E 018°05'0 0.0
2016-Aug-20 22:33N 59°20' E 018°05'0 0.0
2016-Aug-20 21:33N 59°20' E 018°05'0 0.0
2016-Aug-20 20:31N 59°20' E 018°05'5 2.1
2016-Aug-20 18:13N 59°21' E 018°14'5 7.2
2016-Aug-20 17:33N 59°20' E 018°05'0 0.0
2016-Aug-20 16:31N 59°20' E 018°05'2 1.8
2016-Aug-20 15:33N 59°19' E 018°08'3 0.4
2016-Aug-20 08:13N 59°20' E 018°13'4 6.2
2016-Aug-20 07:32N 59°20' E 018°05'0 0.0
2016-Aug-20 06:32N 59°20' E 018°05'0 0.0
2016-Aug-20 05:32N 59°20' E 018°05'0 0.0
2016-Aug-20 04:32N 59°20' E 018°05'0 0.0
2016-Aug-20 03:32N 59°20' E 018°05'0 0.0
2016-Aug-20 02:32N 59°20' E 018°05'0 0.0
2016-Aug-20 01:32N 59°20' E 018°05'0 0.0
2016-Aug-20 00:32N 59°20' E 018°05'0 0.0
2016-Aug-19 23:32N 59°20' E 018°05'0 0.0
2016-Aug-19 22:32N 59°20' E 018°05'  

Dump ship's entire track history